createdAt,value
2022-09-26T00:19:35.947Z,195
2022-09-26T00:39:36.426Z,189
2022-09-26T00:59:36.410Z,201
2022-09-26T01:19:36.387Z,207
2022-09-26T01:39:36.356Z,211
2022-09-26T01:59:36.323Z,209
2022-09-26T02:19:36.299Z,196
2022-09-26T02:39:36.285Z,197
2022-09-26T02:59:36.277Z,191
2022-09-26T03:19:36.233Z,199
2022-09-26T03:39:36.223Z,202
2022-09-26T03:59:36.191Z,204
2022-09-26T04:19:36.168Z,199
2022-09-26T04:39:35.938Z,203
2022-09-26T04:59:36.127Z,192
2022-09-26T05:19:36.102Z,195
2022-09-26T05:39:38.986Z,205
2022-09-26T05:59:36.064Z,203
2022-09-26T06:19:36.019Z,216
2022-09-26T06:39:35.527Z,219
2022-09-26T06:59:35.986Z,210
2022-09-26T07:19:35.965Z,217
2022-09-26T07:39:35.937Z,214
2022-09-26T07:59:35.917Z,206
2022-09-26T08:19:35.878Z,203
2022-09-26T08:39:35.847Z,212
2022-09-26T08:59:35.833Z,211
2022-09-26T09:19:35.801Z,222
2022-09-26T09:39:35.790Z,227
2022-09-26T09:59:35.258Z,218
2022-09-26T10:19:35.732Z,232
2022-09-26T10:39:35.705Z,242
2022-09-26T10:59:35.681Z,240
2022-09-26T11:19:35.660Z,220
2022-09-26T11:39:35.144Z,239
2022-09-26T11:59:35.595Z,227
2022-09-26T12:19:35.585Z,238
2022-09-26T12:39:35.552Z,226
2022-09-26T12:59:38.481Z,219
2022-09-26T13:19:35.488Z,233
2022-09-26T13:39:35.329Z,232
2022-09-26T13:59:35.456Z,239
2022-09-26T14:19:35.433Z,226
2022-09-26T14:39:35.394Z,215
2022-09-26T14:59:35.174Z,240
2022-09-26T15:19:35.343Z,240
2022-09-26T15:39:35.313Z,245
2022-09-26T15:59:38.695Z,240
2022-09-26T16:19:34.785Z,254
2022-09-26T16:39:35.243Z,253
2022-09-26T16:59:34.737Z,250
2022-09-26T17:19:35.214Z,254
2022-09-26T17:39:34.672Z,256
2022-09-26T17:59:35.171Z,257
2022-09-26T18:19:35.153Z,266
2022-09-26T18:39:35.110Z,351
2022-09-26T18:59:35.078Z,358
2022-09-26T19:19:35.071Z,354
2022-09-26T19:39:34.824Z,340
2022-09-26T19:59:34.800Z,325
2022-09-26T20:19:34.482Z,308
2022-09-26T20:39:34.458Z,284
2022-09-26T20:59:34.439Z,278
2022-09-26T21:19:34.908Z,260
2022-09-26T21:39:34.879Z,259
2022-09-26T21:59:34.874Z,272
2022-09-26T22:19:34.354Z,266
2022-09-26T22:39:34.817Z,263
2022-09-26T22:59:34.776Z,268
2022-09-26T23:19:34.756Z,278
2022-09-26T23:39:34.741Z,276
2022-09-26T23:59:34.718Z,266
